sensor_id;sensor_type;location;lat;lon;timestamp;pressure;altitude;pressure_sealevel;temperature;humidity
16834;BME280;8533;48.426;10.868;2023-04-08T00:02:05;96259.67;;;4.34;100.00
16834;BME280;8533;48.426;10.868;2023-04-08T00:04:32;96258.37;;;4.34;100.00
16834;BME280;8533;48.426;10.868;2023-04-08T00:07:00;96262.95;;;4.32;100.00
16834;BME280;8533;48.426;10.868;2023-04-08T00:09:27;96259.79;;;4.30;100.00
16834;BME280;8533;48.426;10.868;2023-04-08T00:11:55;96257.70;;;4.29;100.00
16834;BME280;8533;48.426;10.868;2023-04-08T00:14:22;96258.77;;;4.31;100.00
16834;BME280;8533;48.426;10.868;2023-04-08T00:16:49;96264.24;;;4.32;100.00
16834;BME280;8533;48.426;10.868;2023-04-08T00:19:17;96267.33;;;4.31;100.00
16834;BME280;8533;48.426;10.868;2023-04-08T00:21:45;96264.66;;;4.29;100.00
16834;BME280;8533;48.426;10.868;2023-04-08T00:24:13;96272.52;;;4.25;100.00
16834;BME280;8533;48.426;10.868;2023-04-08T00:26:40;96271.84;;;4.20;100.00
16834;BME280;8533;48.426;10.868;2023-04-08T00:29:08;96270.45;;;4.17;100.00
16834;BME280;8533;48.426;10.868;2023-04-08T00:31:36;96269.05;;;4.15;100.00
16834;BME280;8533;48.426;10.868;2023-04-08T00:34:03;96264.37;;;4.14;100.00
16834;BME280;8533;48.426;10.868;2023-04-08T00:36:30;96262.89;;;4.09;100.00
16834;BME280;8533;48.426;10.868;2023-04-08T00:38:58;96264.38;;;4.08;100.00
16834;BME280;8533;48.426;10.868;2023-04-08T00:41:25;96266.17;;;4.07;100.00
16834;BME280;8533;48.426;10.868;2023-04-08T00:43:53;96269.48;;;4.05;100.00
16834;BME280;8533;48.426;10.868;2023-04-08T00:46:21;96268.95;;;4.06;100.00
16834;BME280;8533;48.426;10.868;2023-04-08T00:48:48;96263.40;;;4.02;100.00
16834;BME280;8533;48.426;10.868;2023-04-08T00:51:16;96267.86;;;3.98;100.00
16834;BME280;8533;48.426;10.868;2023-04-08T00:53:44;96271.67;;;3.95;100.00
16834;BME280;8533;48.426;10.868;2023-04-08T00:56:11;96269.08;;;3.95;100.00
16834;BME280;8533;48.426;10.868;2023-04-08T00:58:39;96272.66;;;3.94;100.00
16834;BME280;8533;48.426;10.868;2023-04-08T01:01:17;96273.05;;;3.91;100.00
16834;BME280;8533;48.426;10.868;2023-04-08T01:04:03;96267.00;;;3.88;100.00
16834;BME280;8533;48.426;10.868;2023-04-08T01:06:53;96270.27;;;3.86;100.00
16834;BME280;8533;48.426;10.868;2023-04-08T01:09:17;96268.19;;;3.79;100.00
16834;BME280;8533;48.426;10.868;2023-04-08T01:11:48;96265.38;;;3.74;100.00
16834;BME280;8533;48.426;10.868;2023-04-08T01:14:20;96268.08;;;3.70;100.00
16834;BME280;8533;48.426;10.868;2023-04-08T01:16:49;96259.53;;;3.63;100.00
16834;BME280;8533;48.426;10.868;2023-04-08T01:19:33;96269.77;;;3.60;100.00
16834;BME280;8533;48.426;10.868;2023-04-08T01:21:58;96266.79;;;3.57;100.00
16834;BME280;8533;48.426;10.868;2023-04-08T01:24:30;96262.38;;;3.51;100.00
16834;BME280;8533;48.426;10.868;2023-04-08T01:26:58;96261.02;;;3.48;100.00
16834;BME280;8533;48.426;10.868;2023-04-08T01:29:27;96260.22;;;3.48;100.00
16834;BME280;8533;48.426;10.868;2023-04-08T01:31:56;96262.08;;;3.43;100.00
16834;BME280;8533;48.426;10.868;2023-04-08T01:34:25;96259.69;;;3.41;100.00
16834;BME280;8533;48.426;10.868;2023-04-08T01:36:54;96259.11;;;3.39;100.00
16834;BME280;8533;48.426;10.868;2023-04-08T01:39:23;96262.69;;;3.38;100.00
16834;BME280;8533;48.426;10.868;2023-04-08T01:41:53;96267.25;;;3.36;100.00
16834;BME280;8533;48.426;10.868;2023-04-08T01:44:22;96263.37;;;3.36;100.00
16834;BME280;8533;48.426;10.868;2023-04-08T01:46:50;96261.70;;;3.39;100.00
16834;BME280;8533;48.426;10.868;2023-04-08T01:49:20;96264.28;;;3.39;100.00
16834;BME280;8533;48.426;10.868;2023-04-08T01:51:48;96269.14;;;3.38;100.00
16834;BME280;8533;48.426;10.868;2023-04-08T01:54:18;96265.58;;;3.39;100.00
16834;BME280;8533;48.426;10.868;2023-04-08T01:56:46;96265.77;;;3.38;100.00
16834;BME280;8533;48.426;10.868;2023-04-08T01:59:15;96262.69;;;3.38;100.00
16834;BME280;8533;48.426;10.868;2023-04-08T02:01:47;96265.58;;;3.39;100.00
16834;BME280;8533;48.426;10.868;2023-04-08T02:04:15;96262.00;;;3.40;100.00
16834;BME280;8533;48.426;10.868;2023-04-08T02:06:43;96263.29;;;3.40;100.00
16834;BME280;8533;48.426;10.868;2023-04-08T02:09:10;96269.45;;;3.39;100.00
16834;BME280;8533;48.426;10.868;2023-04-08T02:11:38;96268.84;;;3.37;100.00
16834;BME280;8533;48.426;10.868;2023-04-08T02:14:06;96268.42;;;3.34;100.00
16834;BME280;8533;48.426;10.868;2023-04-08T02:16:53;96274.09;;;3.33;100.00
16834;BME280;8533;48.426;10.868;2023-04-08T02:19:31;96267.05;;;3.31;100.00
16834;BME280;8533;48.426;10.868;2023-04-08T02:22:04;96273.59;;;3.27;100.00
16834;BME280;8533;48.426;10.868;2023-04-08T02:24:27;96273.47;;;3.25;100.00
16834;BME280;8533;48.426;10.868;2023-04-08T02:26:56;96276.47;;;3.22;100.00
16834;BME280;8533;48.426;10.868;2023-04-08T02:29:26;96276.34;;;3.19;100.00
16834;BME280;8533;48.426;10.868;2023-04-08T02:31:55;96273.07;;;3.15;100.00
16834;BME280;8533;48.426;10.868;2023-04-08T02:34:24;96270.67;;;3.13;100.00
16834;BME280;8533;48.426;10.868;2023-04-08T02:36:52;96277.33;;;3.12;100.00
16834;BME280;8533;48.426;10.868;2023-04-08T02:39:19;96278.50;;;3.09;100.00
16834;BME280;8533;48.426;10.868;2023-04-08T02:41:47;96268.66;;;3.08;100.00
16834;BME280;8533;48.426;10.868;2023-04-08T02:44:14;96275.73;;;3.11;100.00
16834;BME280;8533;48.426;10.868;2023-04-08T02:46:42;96275.54;;;3.12;100.00
16834;BME280;8533;48.426;10.868;2023-04-08T02:49:09;96274.25;;;3.12;100.00
16834;BME280;8533;48.426;10.868;2023-04-08T02:51:37;96280.33;;;3.15;100.00
16834;BME280;8533;48.426;10.868;2023-04-08T02:54:05;96282.50;;;3.18;100.00
16834;BME280;8533;48.426;10.868;2023-04-08T02:56:32;96277.15;;;3.20;100.00
16834;BME280;8533;48.426;10.868;2023-04-08T02:59:00;96277.56;;;3.23;100.00
16834;BME280;8533;48.426;10.868;2023-04-08T03:01:27;96272.70;;;3.24;100.00
16834;BME280;8533;48.426;10.868;2023-04-08T03:03:54;96272.78;;;3.27;100.00
16834;BME280;8533;48.426;10.868;2023-04-08T03:06:22;96276.28;;;3.30;100.00
16834;BME280;8533;48.426;10.868;2023-04-08T03:08:49;96280.55;;;3.33;100.00
16834;BME280;8533;48.426;10.868;2023-04-08T03:11:17;96277.69;;;3.32;100.00
16834;BME280;8533;48.426;10.868;2023-04-08T03:13:44;96279.06;;;3.35;100.00
16834;BME280;8533;48.426;10.868;2023-04-08T03:16:12;96277.89;;;3.37;100.00
16834;BME280;8533;48.426;10.868;2023-04-08T03:18:39;96273.33;;;3.39;100.00
16834;BME280;8533;48.426;10.868;2023-04-08T03:21:06;96278.58;;;3.42;100.00
16834;BME280;8533;48.426;10.868;2023-04-08T03:23:34;96280.78;;;3.45;100.00
16834;BME280;8533;48.426;10.868;2023-04-08T03:26:01;96279.60;;;3.48;100.00
16834;BME280;8533;48.426;10.868;2023-04-08T03:28:29;96283.07;;;3.51;100.00
16834;BME280;8533;48.426;10.868;2023-04-08T03:30:56;96284.17;;;3.52;100.00
16834;BME280;8533;48.426;10.868;2023-04-08T03:33:23;96284.67;;;3.52;100.00
16834;BME280;8533;48.426;10.868;2023-04-08T03:35:52;96283.67;;;3.53;100.00
16834;BME280;8533;48.426;10.868;2023-04-08T03:38:20;96289.45;;;3.55;100.00
16834;BME280;8533;48.426;10.868;2023-04-08T03:40:47;96288.77;;;3.57;100.00
16834;BME280;8533;48.426;10.868;2023-04-08T03:43:15;96291.25;;;3.61;100.00
16834;BME280;8533;48.426;10.868;2023-04-08T03:45:44;96295.13;;;3.67;100.00
16834;BME280;8533;48.426;10.868;2023-04-08T03:48:11;96301.02;;;3.72;100.00
16834;BME280;8533;48.426;10.868;2023-04-08T03:50:39;96297.33;;;3.77;100.00
16834;BME280;8533;48.426;10.868;2023-04-08T03:53:06;96299.31;;;3.81;100.00
16834;BME280;8533;48.426;10.868;2023-04-08T03:55:35;96298.42;;;3.85;100.00
16834;BME280;8533;48.426;10.868;2023-04-08T03:58:03;96296.75;;;3.88;100.00
16834;BME280;8533;48.426;10.868;2023-04-08T04:00:31;96299.03;;;3.94;100.00
16834;BME280;8533;48.426;10.868;2023-04-08T04:02:58;96304.62;;;3.97;100.00
16834;BME280;8533;48.426;10.868;2023-04-08T04:05:26;96302.91;;;4.00;100.00
16834;BME280;8533;48.426;10.868;2023-04-08T04:07:54;96311.58;;;4.03;100.00
16834;BME280;8533;48.426;10.868;2023-04-08T04:10:21;96305.19;;;4.06;100.00
16834;BME280;8533;48.426;10.868;2023-04-08T04:12:49;96301.91;;;4.08;100.00
16834;BME280;8533;48.426;10.868;2023-04-08T04:15:16;96304.30;;;4.09;100.00
16834;BME280;8533;48.426;10.868;2023-04-08T04:17:46;96316.55;;;4.11;100.00
16834;BME280;8533;48.426;10.868;2023-04-08T04:20:13;96310.16;;;4.14;100.00
16834;BME280;8533;48.426;10.868;2023-04-08T04:22:40;96314.64;;;4.16;100.00
16834;BME280;8533;48.426;10.868;2023-04-08T04:25:09;96317.84;;;4.18;100.00
16834;BME280;8533;48.426;10.868;2023-04-08T04:27:37;96317.22;;;4.22;100.00
16834;BME280;8533;48.426;10.868;2023-04-08T04:30:05;96318.63;;;4.25;100.00
16834;BME280;8533;48.426;10.868;2023-04-08T04:32:32;96318.13;;;4.26;100.00
16834;BME280;8533;48.426;10.868;2023-04-08T04:35:00;96323.91;;;4.28;100.00
16834;BME280;8533;48.426;10.868;2023-04-08T04:37:27;96325.80;;;4.30;100.00
16834;BME280;8533;48.426;10.868;2023-04-08T04:39:55;96320.63;;;4.30;100.00
16834;BME280;8533;48.426;10.868;2023-04-08T04:42:22;96329.89;;;4.28;100.00
16834;BME280;8533;48.426;10.868;2023-04-08T04:44:49;96321.92;;;4.30;100.00
16834;BME280;8533;48.426;10.868;2023-04-08T04:47:17;96325.09;;;4.32;100.00
16834;BME280;8533;48.426;10.868;2023-04-08T04:49:45;96328.47;;;4.32;100.00
16834;BME280;8533;48.426;10.868;2023-04-08T04:52:12;96328.77;;;4.33;100.00
16834;BME280;8533;48.426;10.868;2023-04-08T04:54:40;96327.58;;;4.36;100.00
16834;BME280;8533;48.426;10.868;2023-04-08T04:57:07;96333.76;;;4.35;100.00
16834;BME280;8533;48.426;10.868;2023-04-08T04:59:36;96328.88;;;4.36;100.00
16834;BME280;8533;48.426;10.868;2023-04-08T05:02:04;96330.48;;;4.37;100.00
16834;BME280;8533;48.426;10.868;2023-04-08T05:04:31;96332.64;;;4.40;100.00
16834;BME280;8533;48.426;10.868;2023-04-08T05:06:59;96337.13;;;4.42;100.00
16834;BME280;8533;48.426;10.868;2023-04-08T05:09:26;96341.31;;;4.43;100.00
16834;BME280;8533;48.426;10.868;2023-04-08T05:11:55;96343.61;;;4.42;100.00
16834;BME280;8533;48.426;10.868;2023-04-08T05:14:23;96344.51;;;4.45;100.00
16834;BME280;8533;48.426;10.868;2023-04-08T05:16:50;96347.10;;;4.45;100.00
16834;BME280;8533;48.426;10.868;2023-04-08T05:19:18;96344.51;;;4.45;100.00
16834;BME280;8533;48.426;10.868;2023-04-08T05:21:45;96344.81;;;4.46;100.00
16834;BME280;8533;48.426;10.868;2023-04-08T05:24:13;96345.69;;;4.49;100.00
16834;BME280;8533;48.426;10.868;2023-04-08T05:26:40;96347.09;;;4.51;100.00
16834;BME280;8533;48.426;10.868;2023-04-08T05:29:07;96349.17;;;4.52;100.00
16834;BME280;8533;48.426;10.868;2023-04-08T05:31:35;96352.38;;;4.54;100.00
16834;BME280;8533;48.426;10.868;2023-04-08T05:34:02;96357.63;;;4.56;100.00
16834;BME280;8533;48.426;10.868;2023-04-08T05:36:30;96355.75;;;4.61;100.00
16834;BME280;8533;48.426;10.868;2023-04-08T05:38:58;96353.53;;;4.65;100.00
16834;BME280;8533;48.426;10.868;2023-04-08T05:41:26;96353.14;;;4.68;100.00
16834;BME280;8533;48.426;10.868;2023-04-08T05:43:53;96349.73;;;4.74;100.00
16834;BME280;8533;48.426;10.868;2023-04-08T05:46:21;96357.48;;;4.80;100.00
16834;BME280;8533;48.426;10.868;2023-04-08T05:48:48;96358.75;;;4.87;100.00
16834;BME280;8533;48.426;10.868;2023-04-08T05:51:15;96358.27;;;4.94;100.00
16834;BME280;8533;48.426;10.868;2023-04-08T05:53:45;96357.64;;;4.98;100.00
16834;BME280;8533;48.426;10.868;2023-04-08T05:56:12;96365.69;;;5.06;100.00
16834;BME280;8533;48.426;10.868;2023-04-08T05:58:39;96365.30;;;5.09;100.00
16834;BME280;8533;48.426;10.868;2023-04-08T06:01:08;96366.09;;;5.03;100.00
16834;BME280;8533;48.426;10.868;2023-04-08T06:03:35;96373.27;;;5.08;100.00
16834;BME280;8533;48.426;10.868;2023-04-08T06:06:03;96380.52;;;5.15;100.00
16834;BME280;8533;48.426;10.868;2023-04-08T06:08:31;96378.53;;;5.17;100.00
16834;BME280;8533;48.426;10.868;2023-04-08T06:10:58;96382.19;;;5.25;100.00
16834;BME280;8533;48.426;10.868;2023-04-08T06:13:25;96376.27;;;5.33;100.00
16834;BME280;8533;48.426;10.868;2023-04-08T06:15:53;96378.63;;;5.42;100.00
16834;BME280;8533;48.426;10.868;2023-04-08T06:18:20;96385.78;;;5.46;100.00
16834;BME280;8533;48.426;10.868;2023-04-08T06:20:48;96384.95;;;5.52;100.00
16834;BME280;8533;48.426;10.868;2023-04-08T06:23:16;96383.55;;;5.56;100.00
16834;BME280;8533;48.426;10.868;2023-04-08T06:25:43;96386.24;;;5.59;100.00
16834;BME280;8533;48.426;10.868;2023-04-08T06:28:11;96385.91;;;5.64;100.00
16834;BME280;8533;48.426;10.868;2023-04-08T06:30:38;96383.27;;;5.71;100.00
16834;BME280;8533;48.426;10.868;2023-04-08T06:33:06;96385.06;;;5.70;100.00
16834;BME280;8533;48.426;10.868;2023-04-08T06:35:33;96381.52;;;5.65;100.00
16834;BME280;8533;48.426;10.868;2023-04-08T06:38:03;96380.52;;;5.66;100.00
16834;BME280;8533;48.426;10.868;2023-04-08T06:40:31;96387.85;;;5.75;100.00
16834;BME280;8533;48.426;10.868;2023-04-08T06:42:59;96383.98;;;5.85;100.00
16834;BME280;8533;48.426;10.868;2023-04-08T06:45:26;96306.21;;;5.40;100.00
16834;BME280;8533;48.426;10.868;2023-04-08T06:47:54;96379.30;;;5.91;100.00
16834;BME280;8533;48.426;10.868;2023-04-08T06:50:21;96386.84;;;5.99;100.00
16834;BME280;8533;48.426;10.868;2023-04-08T06:52:49;96389.44;;;5.99;100.00
16834;BME280;8533;48.426;10.868;2023-04-08T06:55:16;96389.84;;;6.11;100.00
16834;BME280;8533;48.426;10.868;2023-04-08T06:57:44;96388.49;;;6.18;100.00
16834;BME280;8533;48.426;10.868;2023-04-08T07:00:14;96383.03;;;6.26;100.00
16834;BME280;8533;48.426;10.868;2023-04-08T07:02:42;96391.02;;;6.31;100.00
16834;BME280;8533;48.426;10.868;2023-04-08T07:05:10;96395.61;;;6.29;100.00
16834;BME280;8533;48.426;10.868;2023-04-08T07:07:37;96391.72;;;6.29;100.00
16834;BME280;8533;48.426;10.868;2023-04-08T07:10:05;96390.66;;;6.37;100.00
16834;BME280;8533;48.426;10.868;2023-04-08T07:12:33;96390.77;;;6.33;100.00
16834;BME280;8533;48.426;10.868;2023-04-08T07:15:00;96394.26;;;6.36;100.00
16834;BME280;8533;48.426;10.868;2023-04-08T07:17:27;96393.64;;;6.49;100.00
16834;BME280;8533;48.426;10.868;2023-04-08T07:19:55;96391.54;;;6.65;100.00
16834;BME280;8533;48.426;10.868;2023-04-08T07:22:23;96400.19;;;6.68;100.00
16834;BME280;8533;48.426;10.868;2023-04-08T07:24:50;96400.07;;;6.72;100.00
16834;BME280;8533;48.426;10.868;2023-04-08T07:27:18;96400.36;;;6.73;100.00
16834;BME280;8533;48.426;10.868;2023-04-08T07:29:51;96402.91;;;6.88;100.00
16834;BME280;8533;48.426;10.868;2023-04-08T07:32:16;96407.84;;;6.97;100.00
16834;BME280;8533;48.426;10.868;2023-04-08T07:34:45;96409.05;;;6.94;100.00
16834;BME280;8533;48.426;10.868;2023-04-08T07:37:13;96409.55;;;6.94;100.00
16834;BME280;8533;48.426;10.868;2023-04-08T07:39:42;96409.05;;;6.94;100.00
16834;BME280;8533;48.426;10.868;2023-04-08T07:42:09;96415.90;;;6.98;100.00
16834;BME280;8533;48.426;10.868;2023-04-08T07:44:37;96417.48;;;6.89;100.00
16834;BME280;8533;48.426;10.868;2023-04-08T07:47:04;96418.45;;;6.95;100.00
16834;BME280;8533;48.426;10.868;2023-04-08T07:49:32;96424.95;;;6.95;100.00
16834;BME280;8533;48.426;10.868;2023-04-08T07:51:59;96419.38;;;7.01;100.00
16834;BME280;8533;48.426;10.868;2023-04-08T07:54:27;96420.18;;;7.01;100.00
16834;BME280;8533;48.426;10.868;2023-04-08T07:56:54;96420.11;;;7.08;100.00
16834;BME280;8533;48.426;10.868;2023-04-08T07:59:22;96423.31;;;7.28;100.00
16834;BME280;8533;48.426;10.868;2023-04-08T08:01:50;96419.91;;;7.27;100.00
16834;BME280;8533;48.426;10.868;2023-04-08T08:04:19;96421.77;;;7.39;100.00
16834;BME280;8533;48.426;10.868;2023-04-08T08:06:47;96426.34;;;7.43;100.00
16834;BME280;8533;48.426;10.868;2023-04-08T08:09:14;96429.95;;;7.51;100.00
16834;BME280;8533;48.426;10.868;2023-04-08T08:11:41;96432.39;;;7.55;100.00
16834;BME280;8533;48.426;10.868;2023-04-08T08:14:09;96432.10;;;7.54;100.00
16834;BME280;8533;48.426;10.868;2023-04-08T08:16:38;96440.07;;;7.50;100.00
16834;BME280;8533;48.426;10.868;2023-04-08T08:19:06;96441.23;;;7.36;100.00
16834;BME280;8533;48.426;10.868;2023-04-08T08:21:36;96439.05;;;7.24;100.00
16834;BME280;8533;48.426;10.868;2023-04-08T08:24:04;96442.62;;;7.30;100.00
16834;BME280;8533;48.426;10.868;2023-04-08T08:26:35;96444.42;;;7.29;100.00
16834;BME280;8533;48.426;10.868;2023-04-08T08:29:04;96449.75;;;7.25;100.00
16834;BME280;8533;48.426;10.868;2023-04-08T08:31:33;96445.72;;;7.29;100.00
16834;BME280;8533;48.426;10.868;2023-04-08T08:34:01;96454.33;;;7.30;100.00
16834;BME280;8533;48.426;10.868;2023-04-08T08:36:28;96456.19;;;7.13;100.00
16834;BME280;8533;48.426;10.868;2023-04-08T08:38:56;96459.19;;;7.01;100.00
16834;BME280;8533;48.426;10.868;2023-04-08T08:41:24;96461.94;;;6.97;100.00
16834;BME280;8533;48.426;10.868;2023-04-08T08:43:52;96461.22;;;7.08;100.00
16834;BME280;8533;48.426;10.868;2023-04-08T08:46:20;96466.92;;;7.08;100.00
16834;BME280;8533;48.426;10.868;2023-04-08T08:48:47;96467.59;;;7.12;100.00
16834;BME280;8533;48.426;10.868;2023-04-08T08:51:15;96466.85;;;6.71;100.00
16834;BME280;8533;48.426;10.868;2023-04-08T08:53:42;96470.78;;;6.89;100.00
16834;BME280;8533;48.426;10.868;2023-04-08T08:56:10;96466.67;;;6.91;100.00
16834;BME280;8533;48.426;10.868;2023-04-08T08:58:38;96477.45;;;6.95;100.00
16834;BME280;8533;48.426;10.868;2023-04-08T09:01:33;96473.22;;;6.60;100.00
16834;BME280;8533;48.426;10.868;2023-04-08T09:04:07;96479.20;;;6.76;100.00
16834;BME280;8533;48.426;10.868;2023-04-08T09:06:37;96484.19;;;6.77;100.00
16834;BME280;8533;48.426;10.868;2023-04-08T09:09:05;96480.11;;;6.63;100.00
16834;BME280;8533;48.426;10.868;2023-04-08T09:11:36;96486.59;;;6.79;100.00
16834;BME280;8533;48.426;10.868;2023-04-08T09:14:16;96483.98;;;6.79;100.00
16834;BME280;8533;48.426;10.868;2023-04-08T09:16:41;96488.27;;;6.92;100.00
16834;BME280;8533;48.426;10.868;2023-04-08T09:19:09;96478.75;;;6.95;100.00
16834;BME280;8533;48.426;10.868;2023-04-08T09:21:38;96484.25;;;6.96;100.00
16834;BME280;8533;48.426;10.868;2023-04-08T09:24:09;96481.06;;;6.94;100.00
16834;BME280;8533;48.426;10.868;2023-04-08T09:26:37;96478.60;;;6.99;100.00
16834;BME280;8533;48.426;10.868;2023-04-08T09:29:08;96486.91;;;6.98;100.00
16834;BME280;8533;48.426;10.868;2023-04-08T09:31:38;96484.31;;;6.89;100.00
16834;BME280;8533;48.426;10.868;2023-04-08T09:34:13;96477.95;;;6.94;100.00
16834;BME280;8533;48.426;10.868;2023-04-08T09:36:42;96485.78;;;6.78;100.00
16834;BME280;8533;48.426;10.868;2023-04-08T09:39:10;96479.37;;;6.90;100.00
16834;BME280;8533;48.426;10.868;2023-04-08T09:41:38;96473.20;;;7.00;100.00
16834;BME280;8533;48.426;10.868;2023-04-08T09:44:07;96471.45;;;6.94;100.00
16834;BME280;8533;48.426;10.868;2023-04-08T09:55:01;96464.48;;;7.04;100.00
16834;BME280;8533;48.426;10.868;2023-04-08T09:57:45;96468.10;;;7.12;100.00
16834;BME280;8533;48.426;10.868;2023-04-08T10:00:12;96465.86;;;7.24;100.00
16834;BME280;8533;48.426;10.868;2023-04-08T10:02:48;96473.38;;;7.23;100.00
16834;BME280;8533;48.426;10.868;2023-04-08T10:05:14;96469.05;;;7.26;99.19
16834;BME280;8533;48.426;10.868;2023-04-08T10:07:44;96477.80;;;7.41;99.94
16834;BME280;8533;48.426;10.868;2023-04-08T10:10:11;96476.29;;;7.43;100.00
16834;BME280;8533;48.426;10.868;2023-04-08T10:12:39;96475.80;;;7.61;95.99
16834;BME280;8533;48.426;10.868;2023-04-08T10:15:26;96477.44;;;7.65;93.39
16834;BME280;8533;48.426;10.868;2023-04-08T10:18:40;96483.67;;;7.46;96.88
16834;BME280;8533;48.426;10.868;2023-04-08T10:23:11;96481.13;;;7.57;91.85
16834;BME280;8533;48.426;10.868;2023-04-08T10:25:43;96482.52;;;7.60;91.54
16834;BME280;8533;48.426;10.868;2023-04-08T10:30:47;96485.88;;;7.79;92.95
16834;BME280;8533;48.426;10.868;2023-04-08T10:33:17;96478.61;;;7.78;92.51
16834;BME280;8533;48.426;10.868;2023-04-08T10:35:51;96483.22;;;7.94;89.67
16834;BME280;8533;48.426;10.868;2023-04-08T10:38:17;96475.73;;;8.07;89.54
16834;BME280;8533;48.426;10.868;2023-04-08T10:40:46;96478.09;;;8.27;86.20
16834;BME280;8533;48.426;10.868;2023-04-08T10:43:14;96477.22;;;8.33;85.49
16834;BME280;8533;48.426;10.868;2023-04-08T10:45:43;96476.03;;;8.29;85.77
16834;BME280;8533;48.426;10.868;2023-04-08T10:50:50;96481.02;;;8.10;87.30
16834;BME280;8533;48.426;10.868;2023-04-08T10:53:13;96475.72;;;8.16;87.58
16834;BME280;8533;48.426;10.868;2023-04-08T10:55:41;96476.66;;;8.13;84.10
16834;BME280;8533;48.426;10.868;2023-04-08T10:58:09;96476.76;;;8.36;84.59
16834;BME280;8533;48.426;10.868;2023-04-08T11:00:45;96471.91;;;8.10;84.11
16834;BME280;8533;48.426;10.868;2023-04-08T11:03:12;96471.11;;;8.39;82.49
16834;BME280;8533;48.426;10.868;2023-04-08T11:05:40;96478.91;;;8.48;81.49
16834;BME280;8533;48.426;10.868;2023-04-08T11:08:07;96479.95;;;7.90;85.00
16834;BME280;8533;48.426;10.868;2023-04-08T11:10:38;96470.27;;;7.79;86.42
16834;BME280;8533;48.426;10.868;2023-04-08T11:13:07;96466.53;;;8.04;82.66
16834;BME280;8533;48.426;10.868;2023-04-08T11:15:35;96476.02;;;8.08;83.29
16834;BME280;8533;48.426;10.868;2023-04-08T11:18:04;96476.92;;;8.23;81.29
16834;BME280;8533;48.426;10.868;2023-04-08T11:20:32;96478.11;;;8.18;81.80
16834;BME280;8533;48.426;10.868;2023-04-08T11:23:01;96478.13;;;7.99;84.20
16834;BME280;8533;48.426;10.868;2023-04-08T11:25:29;96480.56;;;8.13;84.95
16834;BME280;8533;48.426;10.868;2023-04-08T11:27:57;96476.25;;;7.97;86.42
16834;BME280;8533;48.426;10.868;2023-04-08T11:30:25;96474.91;;;7.86;86.53
16834;BME280;8533;48.426;10.868;2023-04-08T11:32:53;96479.62;;;7.77;88.65
16834;BME280;8533;48.426;10.868;2023-04-08T11:35:22;96477.60;;;7.70;87.95
16834;BME280;8533;48.426;10.868;2023-04-08T11:37:51;96484.91;;;7.61;88.42
16834;BME280;8533;48.426;10.868;2023-04-08T11:40:20;96478.61;;;7.51;87.99
16834;BME280;8533;48.426;10.868;2023-04-08T11:42:52;96475.34;;;7.55;86.70
16834;BME280;8533;48.426;10.868;2023-04-08T11:45:20;96474.55;;;7.27;90.20
16834;BME280;8533;48.426;10.868;2023-04-08T11:47:48;96474.85;;;7.38;88.98
16834;BME280;8533;48.426;10.868;2023-04-08T11:50:23;96477.58;;;7.34;87.78
16834;BME280;8533;48.426;10.868;2023-04-08T11:52:50;96485.98;;;7.02;91.22
16834;BME280;8533;48.426;10.868;2023-04-08T11:55:24;96479.73;;;7.18;91.07
16834;BME280;8533;48.426;10.868;2023-04-08T11:57:52;96481.63;;;7.20;90.71
16834;BME280;8533;48.426;10.868;2023-04-08T12:00:21;96482.02;;;7.08;91.28
16834;BME280;8533;48.426;10.868;2023-04-08T12:02:49;96478.31;;;6.98;93.66
16834;BME280;8533;48.426;10.868;2023-04-08T12:05:18;96396.87;;;6.20;96.51
16834;BME280;8533;48.426;10.868;2023-04-08T12:07:47;96481.03;;;6.84;100.00
16834;BME280;8533;48.426;10.868;2023-04-08T12:10:14;96483.72;;;6.87;100.00
16834;BME280;8533;48.426;10.868;2023-04-08T12:12:42;96484.72;;;6.86;100.00
16834;BME280;8533;48.426;10.868;2023-04-08T12:15:10;96492.67;;;6.91;100.00
16834;BME280;8533;48.426;10.868;2023-04-08T12:17:37;96494.80;;;6.76;100.00
16834;BME280;8533;48.426;10.868;2023-04-08T12:20:06;96490.00;;;6.64;100.00
16834;BME280;8533;48.426;10.868;2023-04-08T12:22:33;96493.52;;;6.60;100.00
16834;BME280;8533;48.426;10.868;2023-04-08T12:25:01;96491.86;;;6.66;100.00
16834;BME280;8533;48.426;10.868;2023-04-08T12:27:30;96497.82;;;6.57;100.00
16834;BME280;8533;48.426;10.868;2023-04-08T12:30:00;96497.62;;;6.59;100.00
16834;BME280;8533;48.426;10.868;2023-04-08T12:32:28;96499.02;;;6.45;100.00
16834;BME280;8533;48.426;10.868;2023-04-08T12:34:55;96499.97;;;6.35;100.00
16834;BME280;8533;48.426;10.868;2023-04-08T12:37:23;96496.41;;;6.30;100.00
16834;BME280;8533;48.426;10.868;2023-04-08T12:39:50;96504.96;;;6.37;100.00
16834;BME280;8533;48.426;10.868;2023-04-08T12:42:18;96501.70;;;6.48;100.00
16834;BME280;8533;48.426;10.868;2023-04-08T12:44:45;96506.76;;;6.52;100.00
16834;BME280;8533;48.426;10.868;2023-04-08T12:47:12;96508.70;;;6.47;100.00
16834;BME280;8533;48.426;10.868;2023-04-08T12:49:40;96518.11;;;6.42;100.00
16834;BME280;8533;48.426;10.868;2023-04-08T12:52:08;96515.85;;;6.36;100.00
16834;BME280;8533;48.426;10.868;2023-04-08T12:54:35;96509.91;;;6.45;100.00
16834;BME280;8533;48.426;10.868;2023-04-08T12:57:02;96513.64;;;6.40;100.00
16834;BME280;8533;48.426;10.868;2023-04-08T12:59:30;96506.22;;;6.43;100.00
16834;BME280;8533;48.426;10.868;2023-04-08T13:01:58;96515.05;;;6.51;100.00
16834;BME280;8533;48.426;10.868;2023-04-08T13:04:26;96506.89;;;6.64;100.00
16834;BME280;8533;48.426;10.868;2023-04-08T13:06:53;96512.66;;;6.66;100.00
16834;BME280;8533;48.426;10.868;2023-04-08T13:09:21;96507.50;;;6.75;100.00
16834;BME280;8533;48.426;10.868;2023-04-08T13:11:48;96514.97;;;6.49;100.00
16834;BME280;8533;48.426;10.868;2023-04-08T13:14:16;96518.59;;;6.32;100.00
16834;BME280;8533;48.426;10.868;2023-04-08T13:16:44;96520.64;;;6.17;100.00
16834;BME280;8533;48.426;10.868;2023-04-08T13:19:11;96522.41;;;6.01;100.00
16834;BME280;8533;48.426;10.868;2023-04-08T13:21:39;96511.55;;;6.17;100.00
16834;BME280;8533;48.426;10.868;2023-04-08T13:24:06;96505.80;;;6.31;100.00
16834;BME280;8533;48.426;10.868;2023-04-08T13:26:34;96514.76;;;6.50;100.00